Time;durP1;ratioP1;P1;durP2;ratioP2;P2;SDS_P1;SDS_P2;PMS_P1;PMS_P2;Temp;Humidity;BMP_temperature;BMP_pressure;BME280_temperature;BME280_humidity;BME280_pressure;Samples;Min_cycle;Max_cycle;Signal;HPM_P1;HPM_P2
2023/10/22 00:15:14;;;;;;;2.10;1.90;;;;;;;8.54;100.00;94998.91;7400976;19;20356;-90
2023/10/22 00:24:07;;;;;;;2.87;1.90;;;;;;;6.99;100.00;94791.84;7400348;19;20356;-91
2023/10/22 00:26:34;;;;;;;3.43;2.47;;;;;;;7.56;100.00;94866.72;7397383;19;20922;-90
2023/10/22 00:29:02;;;;;;;2.20;2.10;;;;;;;7.80;100.00;94908.59;7394745;19;20417;-90
2023/10/22 00:32:39;;;;;;;3.47;2.83;;;;;;;6.49;100.00;94727.66;7396556;19;20391;-90
2023/10/22 00:56:38;;;;;;;3.27;3.00;;;;;;;7.98;100.00;95032.66;7405284;19;20416;-90
2023/10/22 01:05:40;;;;;;;3.27;2.97;;;;;;;6.25;100.00;94798.66;7398748;19;20375;-90
2023/10/22 01:08:24;;;;;;;2.50;1.80;;;;;;;7.73;100.00;95029.44;7398449;19;20381;-90
2023/10/22 01:11:23;;;;;;;2.60;2.40;;;;;;;6.56;100.00;94855.72;7402382;19;20377;-90
2023/10/22 01:13:50;;;;;;;2.63;1.50;;;;;;;6.11;100.00;94788.53;7396872;19;20795;-90
2023/10/22 01:16:17;;;;;;;2.40;1.97;;;;;;;7.44;100.00;94964.88;7396137;19;20392;-91
2023/10/22 01:19:53;;;;;;;;;;;;;;;;;;;;;
2023/10/22 01:45:51;;;;;;;2.70;1.90;;;;;;;7.81;100.00;95052.19;7402794;19;20812;-91
2023/10/22 01:48:18;;;;;;;1.63;1.53;;;;;;;6.34;100.00;94868.25;7400920;19;20422;-90
2023/10/22 01:50:48;;;;;;;6.63;2.10;;;;;;;5.96;100.00;94826.00;7399697;19;20400;-91
2023/10/22 01:53:33;;;;;;;2.03;1.80;;;;;;;5.62;100.00;94752.00;7402178;19;20955;-90
2023/10/22 01:56:03;;;;;;;2.47;2.27;;;;;;;6.39;100.00;94877.75;7403720;19;20399;-91
2023/10/22 01:58:31;;;;;;;2.23;2.03;;;;;;;7.03;100.00;94987.13;7401302;19;20408;-90
2023/10/22 02:01:52;;;;;;;1.70;1.60;;;;;;;6.50;100.00;94905.81;7402108;19;20763;-91
2023/10/22 02:04:19;;;;;;;2.93;1.80;;;;;;;6.62;100.00;94931.25;7403260;19;20925;-90
2023/10/22 02:06:57;;;;;;;2.50;2.07;;;;;;;5.27;100.00;94736.81;7401709;19;20910;-90
2023/10/22 02:09:39;;;;;;;2.50;1.53;;;;;;;6.34;100.00;94888.50;7402188;19;20443;-90
2023/10/22 02:12:10;;;;;;;2.50;1.83;;;;;;;5.56;100.00;94788.16;7397450;19;20391;-90
2023/10/22 02:14:38;;;;;;;2.20;1.60;;;;;;;6.66;100.00;94954.97;7400928;19;20385;-91
2023/10/22 02:17:06;;;;;;;1.67;1.57;;;;;;;6.13;100.00;94875.53;7403195;19;20385;-90
2023/10/22 02:19:34;;;;;;;1.80;1.70;;;;;;;6.43;100.00;94929.25;7399983;19;20781;-90
2023/10/22 02:22:38;;;;;;;1.80;1.70;;;;;;;7.06;100.00;95028.47;7401849;19;20400;-89
2023/10/22 02:25:07;;;;;;;1.53;1.43;;;;;;;6.43;100.00;94939.00;7399699;19;20381;-91
2023/10/22 02:27:54;;;;;;;2.17;1.97;;;;;;;6.06;100.00;94891.88;7397684;19;20405;-90
2023/10/22 02:30:21;;;;;;;1.93;1.47;;;;;;;6.41;100.00;94933.28;7430821;19;20451;-90
2023/10/22 02:33:42;;;;;;;4.87;1.83;;;;;;;7.31;100.00;95092.22;7430524;19;20477;-90
2023/10/22 02:36:35;;;;;;;2.93;1.40;;;;;;;5.78;100.00;94888.41;7422957;19;20369;-90
2023/10/22 02:39:51;;;;;;;;;;;;;;;;;;;;;
2023/10/22 02:43:13;;;;;;;1.90;1.80;;;;;;;5.43;100.00;94830.44;7399825;19;20403;-91
2023/10/22 02:46:01;;;;;;;4.83;2.17;;;;;;;4.92;100.00;94759.31;7398620;19;20961;-91
2023/10/22 02:48:32;;;;;;;3.10;1.40;;;;;;;5.58;100.00;94861.97;7402434;19;20408;-91
2023/10/22 02:51:03;;;;;;;2.10;1.90;;;;;;;4.92;100.00;94756.69;7400939;19;20384;-90
2023/10/22 02:53:33;;;;;;;1.57;1.47;;;;;;;5.03;100.00;94771.66;7401053;19;20372;-90
2023/10/22 02:56:07;;;;;;;1.67;1.57;;;;;;;5.51;100.00;94843.44;7403336;19;20385;-91
2023/10/22 03:16:51;;;;;;;2.13;1.60;;;;;;;6.42;100.00;95082.63;7357063;19;20790;-90
2023/10/22 03:19:20;;;;;;;1.70;1.60;;;;;;;5.30;100.00;94937.13;7401167;19;20564;-90
2023/10/22 03:36:57;;;;;;;1.77;1.67;;;;;;;4.31;100.00;94759.28;7401181;19;21040;-91
2023/10/22 03:39:31;;;;;;;2.90;1.70;;;;;;;4.87;100.00;94851.19;7396732;19;20408;-90
2023/10/22 03:42:08;;;;;;;1.80;1.70;;;;;;;4.29;100.00;94782.41;7400033;19;20393;-91
2023/10/22 03:44:54;;;;;;;1.80;1.70;;;;;;;5.47;100.00;94951.88;7428838;19;20413;-89
2023/10/22 03:47:22;;;;;;;1.53;1.43;;;;;;;5.38;100.00;94959.09;7428473;19;20393;-90
2023/10/22 03:49:50;;;;;;;1.90;1.70;;;;;;;5.80;100.00;95010.22;7401788;19;20429;-90
2023/10/22 03:52:17;;;;;;;1.87;1.77;;;;;;;4.95;100.00;94879.13;7394633;19;20463;-90
2023/10/22 03:54:44;;;;;;;2.47;1.47;;;;;;;5.17;100.00;94918.00;7396712;19;20958;-91
2023/10/22 03:57:11;;;;;;;1.80;1.60;;;;;;;5.88;100.00;95034.81;7395988;19;20372;-91
2023/10/22 03:59:38;;;;;;;3.60;2.57;;;;;;;5.70;100.00;95012.50;7395141;19;20420;-91
2023/10/22 04:02:05;;;;;;;1.47;1.30;;;;;;;5.07;100.00;94947.22;7395422;19;20377;-90
2023/10/22 04:04:33;;;;;;;2.57;2.20;;;;;;;4.73;100.00;94893.38;7396909;19;20384;-90
2023/10/22 04:07:01;;;;;;;2.50;2.20;;;;;;;4.00;100.00;94798.97;7395541;19;20364;-91
2023/10/22 04:09:29;;;;;;;1.20;1.10;;;;;;;5.84;100.00;95092.38;7396728;19;20427;-91
2023/10/22 04:11:56;;;;;;;1.80;1.60;;;;;;;5.09;100.00;94994.84;7395964;19;20385;-91
2023/10/22 04:14:23;;;;;;;2.90;1.70;;;;;;;4.01;100.00;94837.88;7398683;19;20376;-91
2023/10/22 04:16:50;;;;;;;2.40;1.50;;;;;;;5.53;100.00;95098.13;7398230;19;20390;-90
2023/10/22 04:19:17;;;;;;;3.13;1.60;;;;;;;5.38;100.00;95082.25;7397443;19;20400;-90
2023/10/22 04:21:50;;;;;;;2.37;1.37;;;;;;;5.45;100.00;95101.59;7397421;19;20802;-90
2023/10/22 04:24:17;;;;;;;2.43;2.23;;;;;;;4.45;100.00;94950.75;7395171;19;20391;-90
2023/10/22 04:26:44;;;;;;;3.67;3.47;;;;;;;4.61;100.00;94961.38;7397802;19;20393;-90
2023/10/22 04:29:16;;;;;;;3.20;2.90;;;;;;;4.73;100.00;94988.38;7393516;19;20400;-88
2023/10/22 04:31:58;;;;;;;3.00;2.70;;;;;;;4.68;100.00;94985.97;7394355;19;20726;-88
2023/10/22 04:34:40;;;;;;;3.17;2.87;;;;;;;4.18;100.00;94923.28;7394020;19;20373;-88
2023/10/22 04:37:15;;;;;;;2.67;2.47;;;;;;;4.32;100.00;94938.69;7395010;19;20905;-89
2023/10/22 04:40:07;;;;;;;2.40;2.30;;;;;;;5.62;100.00;95121.63;7421792;19;20468;-96
2023/10/22 04:43:13;;;;;;;2.37;1.87;;;;;;;3.79;100.00;94872.94;7430119;19;20396;-96
2023/10/22 04:46:27;;;;;;;2.10;1.90;;;;;;;5.55;100.00;95137.88;7430306;19;20408;-96
2023/10/22 04:49:26;;;;;;;2.03;1.93;;;;;;;4.15;100.00;94947.44;7426549;19;20381;-96
2023/10/22 04:52:36;;;;;;;8.57;2.83;;;;;;;4.62;100.00;95023.88;7426931;19;20385;-96
2023/10/22 04:55:53;;;;;;;2.10;2.00;;;;;;;4.34;100.00;95007.16;7428227;19;20408;-96
2023/10/22 05:17:10;;;;;;;3.00;1.97;;;;;;;3.73;100.00;94981.34;7381258;19;20443;-89
2023/10/22 05:19:38;;;;;;;3.13;2.50;;;;;;;3.69;100.00;94979.69;7391322;19;21009;-90
2023/10/22 05:22:10;;;;;;;3.83;2.20;;;;;;;3.52;100.00;94991.00;7392742;19;20851;-89
2023/10/22 05:24:52;;;;;;;3.70;2.40;;;;;;;3.22;100.00;94951.78;7392532;19;20374;-89
2023/10/22 06:33:11;;;;;;;9.50;6.67;;;;;;;3.18;100.00;95026.56;7403560;19;20416;-90
2023/10/22 06:35:39;;;;;;;8.00;4.90;;;;;;;2.48;100.00;94951.31;7401649;19;20381;-90
2023/10/22 06:38:06;;;;;;;11.03;5.83;;;;;;;3.19;100.00;95071.72;7405314;19;20403;-91
2023/10/22 06:40:37;;;;;;;6.43;5.77;;;;;;;3.84;100.00;95172.59;7400529;19;20394;-91
2023/10/22 06:43:04;;;;;;;7.47;5.57;;;;;;;2.47;100.00;94955.75;7402602;19;20396;-91
2023/10/22 06:45:31;;;;;;;7.07;6.13;;;;;;;3.20;100.00;95055.00;7400093;19;20401;-90
2023/10/22 06:47:58;;;;;;;7.03;5.63;;;;;;;3.82;100.00;95133.69;7400559;19;20997;-90
2023/10/22 06:50:26;;;;;;;8.13;6.63;;;;;;;4.14;100.00;95197.75;7398900;19;20716;-91
2023/10/22 06:52:53;;;;;;;7.07;6.30;;;;;;;2.79;100.00;95009.28;7399513;19;20398;-90
2023/10/22 06:55:21;;;;;;;10.57;6.00;;;;;;;3.69;100.00;95134.66;7400331;19;20392;-92
2023/10/22 06:58:12;;;;;;;12.03;5.57;;;;;;;2.58;100.00;94990.13;7400132;19;20388;-91
2023/10/22 07:00:54;;;;;;;7.20;5.10;;;;;;;3.18;100.00;95075.44;7397747;19;20376;-92
2023/10/22 07:03:24;;;;;;;6.40;5.80;;;;;;;2.57;100.00;94936.44;7396904;19;20958;-92
2023/10/22 07:05:53;;;;;;;6.30;5.70;;;;;;;2.72;100.00;94958.66;7401494;19;20748;-90
2023/10/22 07:08:20;;;;;;;7.90;6.70;;;;;;;3.58;100.00;95083.03;7398021;19;20480;-91
2023/10/22 07:10:47;;;;;;;9.53;7.53;;;;;;;3.78;100.00;95121.56;7401528;19;20384;-90
2023/10/22 07:13:16;;;;;;;6.80;5.20;;;;;;;3.62;100.00;95097.78;7396157;19;20400;-90
2023/10/22 07:15:43;;;;;;;5.27;4.03;;;;;;;4.61;100.00;95230.97;7400847;19;20388;-90
2023/10/22 07:18:12;;;;;;;7.23;5.20;;;;;;;3.30;100.00;95048.69;7398779;19;20381;-90
2023/10/22 07:20:39;;;;;;;7.30;6.60;;;;;;;4.74;100.00;95275.25;7400546;19;20401;-90
2023/10/22 07:23:07;;;;;;;10.13;8.63;;;;;;;4.98;100.00;95308.75;7399365;19;20466;-90
2023/10/22 07:25:36;;;;;;;14.03;8.60;;;;;;;4.62;100.00;95240.34;7403649;19;20393;-90
2023/10/22 07:28:03;;;;;;;11.73;8.47;;;;;;;3.29;100.00;95021.78;7407370;19;20448;-90
2023/10/22 07:30:31;;;;;;;13.50;8.73;;;;;;;3.88;100.00;95117.84;7412230;19;20486;-90
2023/10/22 07:32:59;;;;;;;9.60;7.80;;;;;;;3.98;100.00;95125.34;7402272;19;20410;-90
2023/10/22 07:35:26;;;;;;;9.23;8.30;;;;;;;4.91;100.00;95274.41;7400287;19;20395;-90
2023/10/22 07:37:53;;;;;;;12.97;7.90;;;;;;;5.21;100.00;95285.69;7398938;19;20389;-90
2023/10/22 07:40:20;;;;;;;20.37;16.07;;;;;;;4.23;100.00;95152.47;7400059;19;20439;-90
2023/10/22 07:42:50;;;;;;;22.30;17.87;;;;;;;4.36;100.00;95135.81;7395659;19;20395;-90
2023/10/22 07:45:38;;;;;;;20.90;16.20;;;;;;;5.07;100.00;95216.25;7406703;19;20384;-90
2023/10/22 07:48:05;;;;;;;18.50;16.20;;;;;;;5.64;100.00;95284.63;7427969;19;20456;-90
2023/10/22 07:50:32;;;;;;;20.30;16.00;;;;;;;3.75;100.00;94988.91;7429740;19;20436;-91
2023/10/22 07:52:59;;;;;;;10.87;9.47;;;;;;;5.91;100.00;95286.75;7409866;19;20400;-91
2023/10/22 07:55:26;;;;;;;8.90;6.57;;;;;;;4.49;100.00;95040.59;7395746;19;20412;-91
2023/10/22 07:57:54;;;;;;;5.23;4.73;;;;;;;5.63;100.00;95172.97;7396874;19;20468;-90
2023/10/22 08:00:21;;;;;;;4.20;3.80;;;;;;;6.53;100.00;95291.09;7395318;19;20954;-90
2023/10/22 08:02:48;;;;;;;4.70;3.90;;;;;;;6.45;100.00;95260.47;7397343;19;20373;-90
2023/10/22 08:05:15;;;;;;;4.20;3.70;;;;;;;5.48;100.00;95090.47;7395687;19;20393;-90
2023/10/22 08:07:43;;;;;;;6.53;4.83;;;;;;;6.38;100.00;95191.19;7396475;19;20413;-91
2023/10/22 08:10:10;;;;;;;5.43;4.83;;;;;;;7.13;100.00;95302.00;7393474;19;20416;-90
2023/10/22 08:12:37;;;;;;;3.70;3.37;;;;;;;6.47;100.00;95181.38;7395639;19;20396;-90
2023/10/22 08:15:05;;;;;;;3.70;3.40;;;;;;;6.35;100.00;95142.00;7394719;19;20431;-91
2023/10/22 08:17:32;;;;;;;6.77;3.60;;;;;;;7.22;100.00;95238.81;7395609;19;20384;-91
2023/10/22 08:19:59;;;;;;;4.50;3.87;;;;;;;7.33;100.00;95232.00;7394074;19;20435;-90
2023/10/22 08:22:26;;;;;;;2.67;2.47;;;;;;;6.87;100.00;95147.31;7400313;19;20452;-91
2023/10/22 08:24:54;;;;;;;2.63;2.30;;;;;;;6.97;100.00;95154.00;7398154;19;20389;-91
2023/10/22 08:27:21;;;;;;;2.53;2.33;;;;;;;7.67;100.00;95236.72;7399543;19;20399;-90
2023/10/22 08:29:49;;;;;;;2.53;2.33;;;;;;;7.53;100.00;95201.38;7392172;19;20405;-91
2023/10/22 08:32:16;;;;;;;6.80;3.60;;;;;;;6.76;100.00;95062.97;7393985;19;20381;-89
2023/10/22 08:34:43;;;;;;;3.27;2.93;;;;;;;7.74;100.00;95190.66;7394076;19;20487;-90
2023/10/22 08:37:11;;;;;;;8.37;4.17;;;;;;;7.06;100.00;95067.91;7395623;19;20443;-90
2023/10/22 08:39:38;;;;;;;2.60;2.30;;;;;;;7.47;100.00;95129.06;7395226;19;20450;-89
2023/10/22 08:42:09;;;;;;;1.90;1.77;;;;;;;8.65;100.00;95339.00;7392825;19;20413;-89
2023/10/22 08:44:44;;;;;;;3.40;2.70;;;;;;;7.57;100.00;95189.09;7396557;19;20456;-90
2023/10/22 08:47:12;;;;;;;3.13;2.93;;;;;;;8.22;100.00;95273.91;7392991;19;20376;-89
2023/10/22 08:49:40;;;;;;;4.80;1.90;;;;;;;8.45;100.00;95306.53;7395578;19;20440;-90
2023/10/22 08:52:08;;;;;;;4.07;1.83;;;;;;;8.39;100.00;95286.03;7395269;19;20421;-89
2023/10/22 08:54:39;;;;;;;2.50;2.00;;;;;;;7.08;100.00;95084.13;7394872;19;20394;-89
2023/10/22 08:57:06;;;;;;;2.10;1.50;;;;;;;7.98;100.00;95225.53;7395526;19;20384;-89
2023/10/22 08:59:35;;;;;;;1.70;1.60;;;;;;;7.95;100.00;95217.56;7395546;19;20441;-90
2023/10/22 09:02:08;;;;;;;3.67;2.27;;;;;;;7.79;100.00;95193.84;7395761;19;20385;-89
2023/10/22 09:04:36;;;;;;;5.53;2.10;;;;;;;8.63;100.00;95295.66;7396987;19;20405;-90
2023/10/22 09:07:03;;;;;;;2.43;2.17;;;;;;;8.93;100.00;95356.66;7395669;19;20392;-89
2023/10/22 09:09:38;;;;;;;5.10;3.00;;;;;;;9.48;100.00;95413.75;7395961;19;20419;-89
2023/10/22 09:12:08;;;;;;;4.30;1.20;;;;;;;8.19;100.00;95225.34;7395711;19;20413;-90
2023/10/22 09:14:35;;;;;;;1.63;1.53;;;;;;;8.48;100.00;95265.56;7392261;19;20769;-89
2023/10/22 09:17:18;;;;;;;4.40;2.23;;;;;;;7.85;100.00;95153.00;7393764;19;20419;-90
2023/10/22 09:19:47;;;;;;;1.93;1.80;;;;;;;8.96;100.00;95309.31;7393401;19;20799;-89
2023/10/22 09:22:22;;;;;;;2.80;1.27;;;;;;;9.09;100.00;95336.34;7396088;19;20940;-89
2023/10/22 09:24:52;;;;;;;2.50;1.37;;;;;;;8.79;100.00;95275.34;7395312;19;20413;-89
2023/10/22 09:27:28;;;;;;;2.80;2.27;;;;;;;8.66;100.00;95243.06;7395749;19;20911;-89
2023/10/22 09:29:58;;;;;;;2.37;1.10;;;;;;;8.68;100.00;95232.97;7390765;19;20419;-91
2023/10/22 09:32:26;;;;;;;2.43;1.37;;;;;;;8.84;100.00;95267.22;7392120;19;20403;-91
2023/10/22 09:35:13;;;;;;;1.80;1.40;;;;;;;9.02;100.00;95294.75;7392929;19;20388;-91
2023/10/22 09:37:50;;;;;;;5.67;1.77;;;;;;;9.15;100.00;95282.25;7398658;19;20384;-90
2023/10/22 09:40:23;;;;;;;3.60;1.27;;;;;;;8.85;100.00;95235.25;7400631;19;20439;-90
2023/10/22 09:42:51;;;;;;;7.40;2.10;;;;;;;10.06;100.00;95390.94;7402137;19;20384;-90
2023/10/22 09:45:19;;;;;;;5.03;1.57;;;;;;;9.82;100.00;95351.56;7400464;19;20409;-90
2023/10/22 09:47:48;;;;;;;7.63;1.60;;;;;;;9.71;100.00;95305.69;7401594;19;20396;-91
2023/10/22 09:50:30;;;;;;;7.57;1.80;;;;;;;9.65;100.00;95313.13;7400137;19;20459;-91
2023/10/22 09:52:59;;;;;;;2.13;1.60;;;;;;;9.40;100.00;95286.19;7402373;19;20734;-91
2023/10/22 09:55:29;;;;;;;4.10;1.47;;;;;;;8.67;100.00;95193.75;7401671;19;20380;-91
2023/10/22 09:57:58;;;;;;;1.97;1.70;;;;;;;9.16;100.00;95258.16;7402392;19;20417;-91
2023/10/22 10:00:25;;;;;;;3.13;1.70;;;;;;;9.30;100.00;95270.13;7401668;19;20401;-91
2023/10/22 10:03:09;;;;;;;6.00;1.53;;;;;;;8.87;100.00;95175.03;7400464;19;20414;-91
2023/10/22 10:05:38;;;;;;;2.90;2.20;;;;;;;9.60;100.00;95281.72;7402065;19;20384;-91
2023/10/22 10:08:05;;;;;;;2.47;1.60;;;;;;;10.04;100.00;95313.94;7399440;19;20389;-91
2023/10/22 10:10:32;;;;;;;3.00;1.70;;;;;;;9.67;100.00;95257.34;7402380;19;20384;-91
2023/10/22 10:13:00;;;;;;;5.40;2.00;;;;;;;9.64;100.00;95274.66;7400501;19;20391;-91
2023/10/22 10:15:32;;;;;;;4.40;1.70;;;;;;;9.88;100.00;95286.84;7403650;19;20380;-91
2023/10/22 10:18:01;;;;;;;7.43;2.00;;;;;;;9.80;100.00;95235.00;7433213;19;20408;-91
2023/10/22 10:20:32;;;;;;;5.10;2.30;;;;;;;9.17;100.00;95140.25;7432439;19;20401;-91
2023/10/22 10:23:18;;;;;;;3.20;2.00;;;;;;;11.08;100.00;95395.91;7398083;19;20375;-91
2023/10/22 10:25:46;;;;;;;7.47;2.67;;;;;;;9.58;100.00;95196.09;7398739;19;21002;-90
2023/10/22 10:28:13;;;;;;;10.57;4.43;;;;;;;10.65;100.00;95357.38;7401628;19;20760;-91
2023/10/22 10:30:41;;;;;;;4.93;1.97;;;;;;;10.00;100.00;95243.66;7399659;19;20448;-91
2023/10/22 10:33:09;;;;;;;7.10;2.20;;;;;;;10.52;100.00;95301.25;7401015;19;20485;-91
2023/10/22 10:35:45;;;;;;;6.70;2.17;;;;;;;10.19;100.00;95233.09;7399124;19;20455;-91
2023/10/22 10:38:20;;;;;;;5.27;1.90;;;;;;;11.49;100.00;95425.34;7400539;19;20405;-91
2023/10/22 10:40:53;;;;;;;5.90;1.50;;;;;;;9.77;100.00;95162.56;7399708;19;20393;-91
2023/10/22 10:43:59;;;;;;;5.83;1.40;;;;;;;11.77;100.00;95457.56;7402251;19;20392;-91
2023/10/22 10:46:27;;;;;;;4.23;1.80;;;;;;;9.73;100.00;95169.63;7401045;19;20372;-91
2023/10/22 10:48:54;;;;;;;1.67;1.40;;;;;;;11.25;100.00;95407.94;7395139;19;20428;-91
2023/10/22 10:51:26;;;;;;;3.93;2.00;;;;;;;9.59;100.00;95174.63;7400357;19;20408;-91
2023/10/22 10:54:12;;;;;;;1.93;1.50;;;;;;;10.89;100.00;95388.03;7398751;19;20375;-91
2023/10/22 10:56:58;;;;;;;5.43;1.60;;;;;;;9.82;100.00;95216.16;7402142;19;20406;-91
2023/10/22 10:59:34;;;;;;;6.00;2.07;;;;;;;10.82;100.00;95298.78;7407719;19;20413;-92
2023/10/22 11:02:19;;;;;;;6.73;2.57;;;;;;;10.88;100.00;95278.09;7402971;19;20930;-91
2023/10/22 11:05:04;;;;;;;6.77;3.43;;;;;;;11.31;100.00;95302.56;7402379;19;20381;-90
2023/10/22 11:07:53;;;;;;;7.47;1.80;;;;;;;11.18;100.00;95294.03;7400944;19;20372;-91
2023/10/22 11:10:23;;;;;;;8.20;2.80;;;;;;;10.64;100.00;95221.81;7403733;19;20389;-91
2023/10/22 11:13:02;;;;;;;6.60;2.57;;;;;;;11.22;100.00;95292.22;7401043;19;20391;-91
2023/10/22 11:15:40;;;;;;;5.73;2.40;;;;;;;10.38;100.00;95176.06;7404619;19;20387;-91
2023/10/22 11:18:12;;;;;;;2.67;1.90;;;;;;;10.40;100.00;95176.47;7402132;19;20409;-91
2023/10/22 11:20:40;;;;;;;2.70;1.43;;;;;;;10.44;100.00;95140.31;7402475;19;20377;-90
2023/10/22 11:23:20;;;;;;;2.10;1.90;;;;;;;11.33;100.00;95321.47;7399094;19;20368;-91
2023/10/22 11:25:53;;;;;;;10.03;2.80;;;;;;;10.59;100.00;95206.25;7399179;19;20373;-91
2023/10/22 11:28:23;;;;;;;17.63;10.47;;;;;;;10.42;100.00;95198.03;7398224;19;20389;-91
2023/10/22 11:30:51;;;;;;;4.53;2.27;;;;;;;10.98;100.00;95264.28;7399767;19;20384;-90
2023/10/22 11:33:29;;;;;;;3.73;1.60;;;;;;;11.05;100.00;95261.72;7399857;19;20373;-91
2023/10/22 11:35:57;;;;;;;4.60;2.37;;;;;;;10.57;100.00;95189.22;7401760;19;20385;-91
2023/10/22 11:38:27;;;;;;;4.87;1.80;;;;;;;11.52;100.00;95355.81;7399764;19;20424;-91
2023/10/22 11:41:01;;;;;;;4.17;1.70;;;;;;;11.15;100.00;95279.66;7397745;19;20413;-91
2023/10/22 11:43:31;;;;;;;4.27;1.30;;;;;;;12.32;100.00;95442.13;7398854;19;20981;-91
2023/10/22 11:46:02;;;;;;;5.70;1.80;;;;;;;10.85;100.00;95252.38;7400486;19;20389;-91
2023/10/22 11:48:29;;;;;;;3.37;1.83;;;;;;;10.29;100.00;95190.28;7398617;19;20404;-90
2023/10/22 11:51:00;;;;;;;2.47;1.63;;;;;;;9.56;100.00;95135.00;7414183;19;20421;-91
2023/10/22 11:53:39;;;;;;;5.53;1.40;;;;;;;9.51;100.00;95149.25;7428714;19;20384;-91
2023/10/22 11:56:07;;;;;;;2.57;1.70;;;;;;;9.66;100.00;95195.91;7415333;19;20436;-91
2023/10/22 11:58:34;;;;;;;4.83;1.70;;;;;;;11.04;100.00;95404.91;7401253;19;20918;-91
2023/10/22 12:01:12;;;;;;;8.03;1.80;;;;;;;10.31;100.00;95287.69;7403985;19;20405;-91
2023/10/22 12:03:42;;;;;;;11.70;1.70;;;;;;;10.56;100.00;95299.47;7400856;19;20390;-91
2023/10/22 12:06:15;;;;;;;3.47;1.60;;;;;;;9.56;100.00;95175.34;7401306;19;20385;-91
2023/10/22 12:08:51;;;;;;;3.00;1.80;;;;;;;9.67;100.00;95194.03;7399077;19;20965;-91
2023/10/22 12:11:18;;;;;;;8.83;1.67;;;;;;;11.67;100.00;95377.97;7402131;19;20384;-91
2023/10/22 12:13:51;;;;;;;4.97;2.23;;;;;;;10.86;100.00;95137.53;7400885;19;20369;-91
2023/10/22 12:16:21;;;;;;;3.40;1.40;;;;;;;11.95;100.00;95186.91;7399620;19;20373;-90
2023/10/22 12:18:54;;;;;;;6.50;1.93;;;;;;;13.44;100.00;95322.75;7398368;19;21061;-91
2023/10/22 12:21:25;;;;;;;2.60;1.30;;;;;;;12.76;100.00;95204.69;7400074;19;20379;-91
2023/10/22 12:23:55;;;;;;;3.47;2.00;;;;;;;13.85;100.00;95341.97;7401312;19;20404;-91
2023/10/22 12:26:28;;;;;;;2.50;2.30;;;;;;;12.73;100.00;95339.56;7399970;19;20390;-90
2023/10/22 12:29:07;;;;;;;3.57;1.57;;;;;;;12.30;100.00;95305.78;7398166;19;20369;-90
2023/10/22 12:31:34;;;;;;;5.00;2.20;;;;;;;11.91;100.00;95345.03;7401348;19;20461;-91
2023/10/22 12:34:14;;;;;;;4.90;2.10;;;;;;;11.25;100.00;95310.81;7398776;19;20373;-90
2023/10/22 12:36:41;;;;;;;6.70;1.90;;;;;;;11.05;100.00;95313.88;7398748;19;20732;-90
2023/10/22 12:39:15;;;;;;;9.10;1.70;;;;;;;12.12;100.00;95491.03;7397372;19;20404;-91
2023/10/22 12:41:48;;;;;;;5.47;1.90;;;;;;;10.85;100.00;95299.97;7399709;19;20361;-90
2023/10/22 12:44:24;;;;;;;3.90;1.37;;;;;;;9.97;100.00;95167.81;7397165;19;20414;-92
2023/10/22 12:46:56;;;;;;;2.40;1.50;;;;;;;11.55;100.00;95342.63;7400851;19;20389;-91
2023/10/22 12:49:24;;;;;;;2.60;1.23;;;;;;;11.10;100.00;95311.69;7398562;19;20388;-91
2023/10/22 12:51:51;;;;;;;6.97;1.77;;;;;;;11.16;100.00;95297.06;7417403;19;20384;-91
2023/10/22 12:54:21;;;;;;;6.20;2.17;;;;;;;12.27;100.00;95479.50;7425291;19;20396;-91
2023/10/22 12:56:56;;;;;;;6.80;2.90;;;;;;;11.11;100.00;95326.47;7426279;19;20377;-92
2023/10/22 12:59:28;;;;;;;6.23;2.43;;;;;;;9.95;100.00;95185.88;7399975;19;20421;-91
2023/10/22 13:01:55;;;;;;;5.80;1.60;;;;;;;10.28;100.00;95220.47;7397354;19;20369;-92
2023/10/22 13:04:31;;;;;;;4.90;1.50;;;;;;;11.13;100.00;95366.53;7401371;19;20388;-91
2023/10/22 13:07:10;;;;;;;5.97;1.83;;;;;;;11.76;100.00;95323.63;7400188;19;20908;-91
2023/10/22 13:09:38;;;;;;;7.00;2.00;;;;;;;12.59;100.00;95323.50;7396477;19;20468;-91
2023/10/22 13:12:26;;;;;;;7.53;2.10;;;;;;;12.69;100.00;95235.34;7400092;19;20440;-91
2023/10/22 13:14:53;;;;;;;8.50;1.70;;;;;;;14.38;100.00;95453.94;7398246;19;20388;-91
2023/10/22 13:17:23;;;;;;;10.73;6.30;;;;;;;14.37;100.00;95399.22;7397031;19;20345;-91
2023/10/22 13:19:50;;;;;;;8.03;2.30;;;;;;;14.48;94.63;95370.81;7399419;19;20491;-90
2023/10/22 13:22:17;;;;;;;7.80;5.33;;;;;;;14.34;90.38;95373.38;7403894;19;20488;-91
2023/10/22 13:24:44;;;;;;;8.87;5.90;;;;;;;14.81;90.60;95445.41;7409018;19;20956;-91
2023/10/22 13:27:11;;;;;;;2.33;1.80;;;;;;;14.78;89.28;95500.91;7409848;19;20369;-91
2023/10/22 13:29:39;;;;;;;7.27;2.47;;;;;;;14.10;88.88;95393.38;7396613;19;20422;-91
2023/10/22 13:32:06;;;;;;;7.43;2.60;;;;;;;13.87;86.84;95375.03;7415223;19;20762;-91
2023/10/22 13:34:33;;;;;;;3.30;2.00;;;;;;;14.85;86.46;95428.34;7398838;19;20365;-91
2023/10/22 13:37:01;;;;;;;3.10;1.73;;;;;;;13.87;88.04;95359.06;7398400;19;20406;-91
2023/10/22 13:39:28;;;;;;;3.47;1.60;;;;;;;14.12;85.55;95379.72;7396267;19;20479;-91
2023/10/22 13:41:55;;;;;;;4.90;1.50;;;;;;;13.78;85.82;95304.75;7397997;19;20372;-91
2023/10/22 13:44:22;;;;;;;5.17;3.23;;;;;;;14.75;87.07;95533.59;7397352;19;20483;-91
2023/10/22 13:46:49;;;;;;;3.40;1.77;;;;;;;13.27;85.68;95247.16;7397183;19;20373;-91
2023/10/22 13:49:16;;;;;;;4.43;1.57;;;;;;;14.31;84.07;95366.16;7396326;19;20404;-91
2023/10/22 13:51:43;;;;;;;6.27;2.73;;;;;;;14.92;82.69;95423.03;7398433;19;20394;-91
2023/10/22 13:54:10;;;;;;;6.80;2.80;;;;;;;15.32;81.78;95480.56;7399662;19;20392;-91
2023/10/22 13:56:37;;;;;;;5.67;2.30;;;;;;;13.70;80.38;95237.53;7400057;19;20384;-91
2023/10/22 13:59:08;;;;;;;4.70;2.10;;;;;;;14.66;80.45;95338.94;7397888;19;20425;-91
2023/10/22 14:01:36;;;;;;;3.97;2.80;;;;;;;15.94;80.82;95450.22;7399779;19;20372;-91
2023/10/22 14:04:03;;;;;;;3.80;3.07;;;;;;;16.74;77.27;95543.88;7400514;19;20365;-91
2023/10/22 14:06:30;;;;;;;4.17;1.60;;;;;;;14.90;76.21;95397.94;7399519;19;20389;-92
2023/10/22 14:08:58;;;;;;;5.33;1.90;;;;;;;15.07;80.86;95540.97;7397530;19;20457;-92
2023/10/22 14:11:25;;;;;;;3.90;1.50;;;;;;;12.56;85.86;95350.75;7399665;19;21190;-91
2023/10/22 14:13:53;;;;;;;8.20;3.50;;;;;;;12.86;92.78;95470.06;7398721;19;20381;-91
2023/10/22 14:16:20;;;;;;;3.53;2.73;;;;;;;11.86;94.08;95354.03;7396681;19;20380;-92
2023/10/22 14:18:47;;;;;;;3.00;2.53;;;;;;;12.27;97.35;95462.84;7397694;19;20399;-91
2023/10/22 14:21:15;;;;;;;5.43;2.97;;;;;;;11.57;99.91;95374.03;7399916;19;20381;-91
2023/10/22 14:23:42;;;;;;;5.07;3.20;;;;;;;11.76;100.00;95397.03;7397831;19;20381;-91
2023/10/22 14:26:09;;;;;;;8.60;3.77;;;;;;;12.24;94.93;95366.28;7404702;19;20801;-91
2023/10/22 14:28:39;;;;;;;3.40;2.90;;;;;;;11.30;96.39;95311.63;7399814;19;20460;-91
2023/10/22 14:31:07;;;;;;;4.57;2.83;;;;;;;11.08;98.17;95295.41;7398269;19;20381;-91
2023/10/22 14:33:34;;;;;;;6.13;1.73;;;;;;;11.31;97.90;95400.47;7397708;19;20396;-91
2023/10/22 14:36:05;;;;;;;3.97;1.73;;;;;;;11.45;98.74;95435.09;7396413;19;20384;-92
2023/10/22 14:38:33;;;;;;;4.80;1.73;;;;;;;10.94;100.00;95356.75;7396949;19;20425;-91
2023/10/22 14:41:01;;;;;;;6.83;2.20;;;;;;;10.29;100.00;95279.34;7397785;19;20380;-91
2023/10/22 14:43:29;;;;;;;4.63;1.67;;;;;;;12.85;96.91;95534.09;7397905;19;20407;-91
2023/10/22 14:46:03;;;;;;;6.20;3.13;;;;;;;13.23;92.17;95541.03;7397717;19;20447;-91
2023/10/22 14:48:31;;;;;;;6.77;1.50;;;;;;;13.43;91.83;95504.44;7402264;19;20404;-91
2023/10/22 14:51:02;;;;;;;3.33;1.60;;;;;;;13.99;91.46;95577.84;7397581;19;20373;-91
2023/10/22 14:53:34;;;;;;;3.80;1.97;;;;;;;12.80;88.97;95338.84;7398352;19;20411;-91
2023/10/22 14:56:03;;;;;;;8.30;2.23;;;;;;;14.12;86.65;95533.91;7396634;19;20377;-91
2023/10/22 14:59:45;;;;;;;3.40;2.10;;;;;;;13.03;85.96;95323.53;7396866;19;20417;-91
2023/10/22 15:02:22;;;;;;;7.17;2.63;;;;;;;12.82;84.07;95280.13;7399427;19;20381;-91
2023/10/22 15:04:54;;;;;;;6.40;3.80;;;;;;;12.79;87.05;95369.16;7401172;19;20373;-91
2023/10/22 15:07:28;;;;;;;4.73;2.27;;;;;;;12.89;90.55;95434.84;7428471;19;20380;-91
2023/10/22 15:09:55;;;;;;;4.93;2.30;;;;;;;12.61;93.25;95426.56;7428656;19;20437;-92
2023/10/22 15:12:23;;;;;;;4.10;2.30;;;;;;;12.30;90.93;95340.22;7404726;19;20396;-91